Cold Bay, Alaska
Current Conditions -  °F | °C
As of 8:53 PM on Wednesday 22 Oct 2014 (Local Time) from PACD Reporting Station
Overcast Overcast  
Wind Chill: 28°   Ceiling: 2400
Heat Index: 39°   Visibility: 10mi
Dew Point: 32°   Wind: 25mph
Humidity: 76%   Direction: 330°NNW
Pressure: 29.99"   Gusts: 32mph
Location:  55.18°N, 162.72°W
Report Text: PACD 230453Z AUTO 33022G28KT 10SM OVC024 04/00 A2999 RMK AO2 PK WND 32028/0446 SLP157 T00390000 TSNO
Loading
Personal Weather Stations






























Interactive Weather Map
Tropical Storm Tracking
New forecast layout! Learn more

10-Day Weather Forecast

Advertisements
Track Severe Weather on mobile